< < Back
Terminal Aerodrome Forecast


Current Version              Previous Versions:   1  2  3  4  5  6  7  8  9  

Terminal Aerodrome Forecast

629
FTUS42 KGSP 312028 AAA
TAFCLT
TAF AMD
KCLT 312028Z 3120/0118 01006KT P6SM FEW070
     FM010300 04004KT P6SM FEW250
     FM011600 36004KT P6SM FEW070=



Latest METAR

245
SAUS70 KWBC 312256
MTRCLT
METAR KCLT 312252Z 33006KT 10SM FEW065 32/12 A2993 RMK AO2 SLP125
T03220117


USA.gov is the U.S. government's official web portal to all federal, state and local government web resources and services.